Time;durP1;ratioP1;P1;durP2;ratioP2;P2;SDS_P1;SDS_P2;PMS_P1;PMS_P2;Temp;Humidity;BMP_temperature;BMP_pressure;BME280_temperature;BME280_humidity;BME280_pressure;Samples;Min_cycle;Max_cycle;Signal;HPM_P1;HPM_P2
2021/03/30 00:02:16;;;;;;;52.48;34.98;;;;;;;2.36;86.27;100812.47;1779189;79;21379;-62
2021/03/30 00:04:44;;;;;;;56.20;35.73;;;;;;;2.37;86.45;100807.77;1807718;79;21071;-62
2021/03/30 00:07:12;;;;;;;56.85;37.90;;;;;;;2.37;86.18;100811.62;1807740;79;21487;-62
2021/03/30 00:09:40;;;;;;;60.67;39.18;;;;;;;2.35;86.10;100808.59;1812359;78;21096;-62
2021/03/30 00:12:09;;;;;;;68.50;41.80;;;;;;;2.35;86.20;100809.45;1813466;79;21105;-61
2021/03/30 00:14:39;;;;;;;63.70;40.33;;;;;;;2.35;86.23;100804.73;1813460;78;21073;-61
2021/03/30 00:17:07;;;;;;;58.42;36.20;;;;;;;2.33;86.02;100797.44;1813429;79;21133;-61
2021/03/30 00:19:35;;;;;;;59.18;39.18;;;;;;;2.29;86.09;100803.36;1813488;79;21060;-61
2021/03/30 00:22:04;;;;;;;65.30;42.15;;;;;;;2.27;86.12;100808.48;1813475;78;21478;-61
2021/03/30 00:24:32;;;;;;;74.50;45.60;;;;;;;2.22;85.82;100813.95;1813477;79;21064;-62
2021/03/30 00:26:59;;;;;;;76.05;45.98;;;;;;;2.10;85.61;100812.52;1813530;79;22168;-61
2021/03/30 00:29:27;;;;;;;67.55;41.40;;;;;;;1.99;85.52;100808.53;1813399;79;21128;-61
2021/03/30 00:31:56;;;;;;;58.05;37.35;;;;;;;1.93;85.77;100802.44;1813460;79;21124;-62
2021/03/30 00:34:25;;;;;;;63.48;38.75;;;;;;;1.92;86.03;100796.86;1813465;79;21073;-61
2021/03/30 00:36:52;;;;;;;58.40;38.25;;;;;;;1.90;86.13;100805.81;1813468;79;21037;-61
2021/03/30 00:39:20;;;;;;;64.72;39.58;;;;;;;1.88;86.16;100807.91;1813408;78;21380;-62
2021/03/30 00:41:48;;;;;;;63.23;39.48;;;;;;;1.87;86.09;100806.19;1813419;79;21549;-62
2021/03/30 00:44:16;;;;;;;59.98;38.50;;;;;;;1.85;85.87;100804.02;1813407;77;21172;-61
2021/03/30 00:46:47;;;;;;;53.40;34.05;;;;;;;1.83;85.79;100802.70;1813436;79;21092;-61
2021/03/30 00:49:15;;;;;;;47.73;30.70;;;;;;;1.82;85.78;100801.40;1813550;79;21061;-61
2021/03/30 00:51:44;;;;;;;50.43;33.13;;;;;;;1.82;85.93;100797.55;1813447;78;21469;-61
2021/03/30 00:54:41;;;;;;;52.62;34.35;;;;;;;1.84;85.74;100797.16;1888740;76;22789;-61
2021/03/30 00:57:10;;;;;;;51.18;35.43;;;;;;;1.73;85.67;100803.42;1775331;80;21060;-61
2021/03/30 00:59:38;;;;;;;59.25;38.53;;;;;;;1.64;85.27;100805.41;1773986;81;21248;-61
2021/03/30 01:02:06;;;;;;;63.25;39.85;;;;;;;1.57;85.14;100804.02;1775219;80;21000;-62
2021/03/30 01:04:34;;;;;;;58.68;38.90;;;;;;;1.51;85.10;100802.22;1773914;81;21204;-62
2021/03/30 01:07:02;;;;;;;60.92;37.10;;;;;;;1.42;84.83;100791.80;1775292;80;21071;-62
2021/03/30 01:10:18;;;;;;;58.45;36.45;;;;;;;1.35;84.81;100799.82;1773890;81;21068;-61
2021/03/30 01:13:12;;;;;;;59.25;36.88;;;;;;;1.31;84.96;100796.76;1775295;80;22330;-62
2021/03/30 01:16:08;;;;;;;55.83;37.23;;;;;;;1.27;84.92;100800.52;1773822;81;21496;-61
2021/03/30 01:19:11;;;;;;;61.92;39.27;;;;;;;1.20;84.83;100799.98;1774669;80;21024;-61
2021/03/30 01:22:05;;;;;;;67.22;40.05;;;;;;;1.15;84.75;100800.31;1703641;81;21189;-61
2021/03/30 01:24:38;;;;;;;60.38;36.80;;;;;;;1.10;84.48;100809.19;1773016;81;21179;-61
2021/03/30 01:27:43;;;;;;;60.17;38.48;;;;;;;1.06;84.19;100805.26;1775303;80;22086;-60
2021/03/30 01:30:12;;;;;;;67.32;39.25;;;;;;;0.99;84.09;100798.77;1773598;81;21088;-61
2021/03/30 01:32:43;;;;;;;57.10;37.93;;;;;;;0.96;83.87;100799.12;1747468;80;21131;-61
2021/03/30 01:35:14;;;;;;;59.10;37.98;;;;;;;0.88;83.81;100801.94;1849964;77;21457;-60
2021/03/30 01:37:44;;;;;;;53.78;34.75;;;;;;;0.80;83.94;100799.67;1849872;77;21068;-61
2021/03/30 01:40:16;;;;;;;47.38;34.05;;;;;;;0.77;83.73;100799.19;1849874;77;21364;-61
2021/03/30 01:42:45;;;;;;;56.45;36.28;;;;;;;0.68;83.79;100802.42;1850047;77;21198;-60
2021/03/30 01:45:21;;;;;;;48.28;32.60;;;;;;;0.62;83.68;100801.43;1794771;77;21513;-60
2021/03/30 01:47:48;;;;;;;46.25;30.85;;;;;;;0.54;83.63;100801.30;1849838;77;21036;-61
2021/03/30 01:50:16;;;;;;;39.60;25.20;;;;;;;0.47;84.07;100796.87;1849815;77;21185;-61
2021/03/30 01:52:44;;;;;;;29.65;20.10;;;;;;;0.49;84.50;100800.33;1849536;77;21477;-61
2021/03/30 01:55:13;;;;;;;27.85;19.45;;;;;;;0.51;84.62;100798.67;1847730;77;21051;-60
2021/03/30 01:57:48;;;;;;;28.25;18.17;;;;;;;0.51;84.90;100794.83;1822051;77;21043;-61
2021/03/30 02:00:19;;;;;;;32.55;17.02;;;;;;;0.52;84.98;100800.40;1847753;77;21554;-61
2021/03/30 02:02:47;;;;;;;43.65;18.52;;;;;;;0.50;85.19;100809.73;1822003;77;21111;-62
2021/03/30 02:05:17;;;;;;;24.70;17.85;;;;;;;0.48;85.31;100802.44;1847284;77;21259;-62
2021/03/30 02:07:45;;;;;;;37.95;23.02;;;;;;;0.48;85.52;100809.26;1821381;77;21103;-61
2021/03/30 02:10:19;;;;;;;77.55;25.82;;;;;;;0.52;85.91;100813.20;1847110;77;21579;-61
2021/03/30 02:12:45;;;;;;;70.20;36.73;;;;;;;0.57;86.24;100819.28;1846833;77;21146;-61
2021/03/30 02:15:16;;;;;;;76.17;36.55;;;;;;;0.62;86.56;100819.34;1847188;77;21567;-61
2021/03/30 02:17:55;;;;;;;75.80;36.60;;;;;;;0.71;86.58;100821.24;1847227;77;21567;-61
2021/03/30 02:20:39;;;;;;;58.87;34.75;;;;;;;0.80;86.53;100818.43;1847085;77;21151;-62
2021/03/30 02:23:12;;;;;;;49.58;31.87;;;;;;;0.89;86.06;100815.20;1847131;77;21040;-62
2021/03/30 02:25:42;;;;;;;54.65;31.77;;;;;;;0.95;85.75;100814.91;1839894;77;21044;-62
2021/03/30 02:28:14;;;;;;;54.30;33.75;;;;;;;0.99;85.78;100817.98;1847146;77;21051;-62
2021/03/30 02:30:42;;;;;;;98.62;34.63;;;;;;;1.03;85.93;100820.16;1847240;77;22218;-62
2021/03/30 02:33:14;;;;;;;58.10;34.15;;;;;;;1.10;85.99;100820.72;1847016;77;21469;-62
2021/03/30 02:35:42;;;;;;;55.98;30.70;;;;;;;1.17;85.88;100822.98;1847398;77;21063;-62
2021/03/30 02:38:09;;;;;;;51.70;31.62;;;;;;;1.21;85.64;100827.31;1847073;77;21043;-62
2021/03/30 02:40:37;;;;;;;65.45;30.75;;;;;;;1.24;85.37;100821.82;1847118;77;21087;-62
2021/03/30 02:43:05;;;;;;;84.90;33.63;;;;;;;1.27;85.26;100824.86;1847109;77;21351;-62
2021/03/30 02:45:35;;;;;;;71.70;31.17;;;;;;;1.28;85.30;100830.44;1821445;77;21565;-62
2021/03/30 02:48:06;;;;;;;75.20;29.75;;;;;;;1.28;85.15;100824.89;1846828;77;21154;-62
2021/03/30 02:50:33;;;;;;;45.05;28.83;;;;;;;1.28;85.19;100827.45;1847065;77;21134;-62
2021/03/30 02:53:03;;;;;;;41.35;27.58;;;;;;;1.24;84.87;100818.39;1821204;77;21043;-62
2021/03/30 02:55:33;;;;;;;44.55;27.10;;;;;;;1.18;84.92;100820.45;1847137;77;22111;-62
2021/03/30 02:58:03;;;;;;;53.63;27.07;;;;;;;1.19;85.25;100822.60;1847072;77;21091;-61
2021/03/30 03:00:31;;;;;;;63.95;29.18;;;;;;;1.18;85.39;100819.59;1847122;77;21027;-61
2021/03/30 03:03:04;;;;;;;92.42;31.50;;;;;;;1.21;85.52;100817.92;1821282;77;21059;-61
2021/03/30 03:05:31;;;;;;;109.05;30.97;;;;;;;1.26;85.56;100825.70;1846415;77;21072;-61
2021/03/30 03:07:59;;;;;;;41.28;27.17;;;;;;;1.30;85.27;100820.66;1847102;77;22620;-61
2021/03/30 03:10:27;;;;;;;52.30;29.25;;;;;;;1.32;85.07;100814.28;1847015;77;21087;-61
2021/03/30 03:12:56;;;;;;;51.23;29.77;;;;;;;1.34;85.00;100822.86;1847027;77;21551;-61
2021/03/30 03:15:24;;;;;;;71.02;30.27;;;;;;;1.35;84.94;100824.59;1847039;77;21103;-61
2021/03/30 03:17:52;;;;;;;75.15;30.02;;;;;;;1.36;84.97;100822.06;1847058;77;21032;-60
2021/03/30 03:20:20;;;;;;;74.07;28.65;;;;;;;1.38;85.06;100814.39;1847067;77;21362;-60
2021/03/30 03:22:48;;;;;;;35.60;23.38;;;;;;;1.40;84.95;100816.98;1847002;77;21056;-60
2021/03/30 03:25:34;;;;;;;31.60;21.68;;;;;;;1.39;84.72;100809.72;1847034;77;21107;-60
2021/03/30 03:28:03;;;;;;;40.30;20.68;;;;;;;1.37;84.59;100817.38;1847159;77;21464;-61
2021/03/30 03:30:31;;;;;;;57.10;19.75;;;;;;;1.34;84.65;100815.17;1847098;77;21057;-61
2021/03/30 03:33:14;;;;;;;85.30;20.32;;;;;;;1.29;84.50;100824.47;1847045;77;21195;-61
2021/03/30 03:35:42;;;;;;;;;;;;;;;1.21;84.37;100821.77;1849844;77;21063;-60
2021/03/30 03:38:12;;;;;;;29.98;19.07;;;;;;;1.15;84.41;100825.94;1821198;77;20222;-61
2021/03/30 03:40:39;;;;;;;29.57;18.00;;;;;;;1.07;84.42;100828.34;1847022;77;21048;-61
2021/03/30 03:43:07;;;;;;;33.95;17.67;;;;;;;1.06;84.73;100830.46;1847166;77;21138;-60
2021/03/30 03:45:36;;;;;;;32.42;18.77;;;;;;;1.08;85.04;100833.05;1847004;77;21201;-61
2021/03/30 03:48:05;;;;;;;53.73;18.57;;;;;;;1.12;85.21;100831.87;1846975;77;21154;-61
2021/03/30 03:50:33;;;;;;;38.90;16.77;;;;;;;1.13;84.88;100832.31;1847038;77;21382;-60
2021/03/30 03:53:00;;;;;;;62.17;19.00;;;;;;;1.14;84.74;100837.89;1847032;77;21484;-61
2021/03/30 03:55:28;;;;;;;23.85;16.87;;;;;;;1.04;84.43;100843.66;1848862;77;21568;-61
2021/03/30 03:58:02;;;;;;;23.45;17.98;;;;;;;1.01;84.67;100836.77;1849118;77;21191;-61
2021/03/30 04:00:29;;;;;;;24.87;18.87;;;;;;;1.06;85.04;100839.43;1849105;77;21063;-60
2021/03/30 04:03:19;;;;;;;40.85;18.80;;;;;;;1.11;84.87;100844.23;1849133;77;21550;-61
2021/03/30 04:06:00;;;;;;;35.95;16.75;;;;;;;1.16;85.15;100843.05;1849199;77;21103;-61
2021/03/30 04:08:31;;;;;;;38.53;16.30;;;;;;;1.22;84.99;100843.13;1828167;77;21456;-61
2021/03/30 04:11:02;;;;;;;43.42;18.42;;;;;;;1.25;84.83;100839.34;1849149;77;21362;-61
2021/03/30 04:13:33;;;;;;;29.20;16.82;;;;;;;1.22;84.39;100835.44;1849034;77;21043;-61
2021/03/30 04:16:03;;;;;;;21.23;14.80;;;;;;;1.24;84.67;100841.05;1849192;77;21464;-61
2021/03/30 04:18:33;;;;;;;30.37;17.00;;;;;;;1.29;84.57;100841.13;1849143;77;21051;-61
2021/03/30 04:21:05;;;;;;;35.35;17.27;;;;;;;1.25;84.15;100841.49;1849215;77;21448;-61
2021/03/30 04:23:40;;;;;;;34.67;18.70;;;;;;;1.24;84.36;100849.15;1849511;77;22170;-61
2021/03/30 04:26:03;;;;;;;41.85;17.42;;;;;;;1.26;84.33;100850.05;1848043;77;21071;-61
2021/03/30 04:28:30;;;;;;;27.65;16.80;;;;;;;1.22;84.46;100848.25;1819160;77;21059;-61
2021/03/30 04:30:58;;;;;;;29.65;17.37;;;;;;;1.27;84.60;100855.62;1849196;77;21461;-61
2021/03/30 04:33:25;;;;;;;29.50;18.52;;;;;;;1.30;84.48;100855.27;1849162;77;21523;-60
2021/03/30 04:35:53;;;;;;;30.75;17.27;;;;;;;1.35;84.50;100854.94;1849103;77;21185;-61
2021/03/30 04:38:22;;;;;;;38.80;19.60;;;;;;;1.38;84.38;100855.41;1849022;77;21067;-62
2021/03/30 04:40:53;;;;;;;41.13;18.73;;;;;;;1.36;84.54;100858.36;1849176;77;21445;-61
2021/03/30 04:43:23;;;;;;;21.80;16.40;;;;;;;1.38;84.10;100860.13;1849101;77;21056;-61
2021/03/30 04:45:51;;;;;;;34.15;17.90;;;;;;;1.35;84.24;100868.17;1818827;77;21036;-61
2021/03/30 04:48:19;;;;;;;31.97;17.30;;;;;;;1.35;84.41;100870.73;1849201;77;22029;-61
2021/03/30 04:50:49;;;;;;;59.73;18.15;;;;;;;1.44;84.87;100872.16;1849023;77;20967;-62
2021/03/30 04:53:17;;;;;;;56.50;19.10;;;;;;;1.56;85.10;100874.95;1849069;77;21115;-61
2021/03/30 04:55:45;;;;;;;68.57;20.15;;;;;;;1.70;85.11;100880.31;1848934;77;21153;-62
2021/03/30 04:58:13;;;;;;;33.42;17.07;;;;;;;1.79;84.64;100878.33;1849083;77;21075;-61
2021/03/30 05:00:41;;;;;;;31.27;14.07;;;;;;;1.90;84.63;100882.78;1849061;77;21260;-62
2021/03/30 05:03:09;;;;;;;33.48;14.83;;;;;;;1.98;83.91;100889.33;1847973;77;21055;-61
2021/03/30 05:05:38;;;;;;;72.50;15.45;;;;;;;2.05;83.98;100877.88;1847415;77;21527;-62
2021/03/30 05:08:07;;;;;;;39.35;15.75;;;;;;;2.21;84.22;100875.13;1847891;77;21151;-62
2021/03/30 05:10:34;;;;;;;40.80;15.30;;;;;;;2.37;84.35;100877.52;1848981;77;21540;-61
2021/03/30 05:13:04;;;;;;;22.17;15.08;;;;;;;2.53;84.00;100873.45;1849027;77;22179;-61
2021/03/30 05:15:31;;;;;;;22.48;15.43;;;;;;;2.68;83.50;100877.07;1846695;77;21185;-64
2021/03/30 05:17:59;;;;;;;26.95;16.25;;;;;;;2.78;83.21;100882.34;1848213;77;21076;-63
2021/03/30 05:20:27;;;;;;;57.50;18.98;;;;;;;2.85;83.37;100882.41;1848952;77;21131;-62
2021/03/30 05:22:55;;;;;;;40.12;17.37;;;;;;;2.95;83.18;100875.27;1848995;77;21219;-62
2021/03/30 05:25:23;;;;;;;37.95;19.20;;;;;;;3.05;82.89;100880.08;1849021;77;21193;-62
2021/03/30 05:27:51;;;;;;;26.07;16.93;;;;;;;3.10;82.83;100875.86;1848936;77;21063;-62
2021/03/30 05:30:20;;;;;;;18.00;13.05;;;;;;;3.19;82.60;100890.12;1849006;77;21059;-62
2021/03/30 05:32:48;;;;;;;29.00;15.28;;;;;;;3.29;82.65;100885.50;1848988;77;21102;-63
2021/03/30 05:35:15;;;;;;;31.95;15.15;;;;;;;3.43;82.18;100889.48;1847162;77;22439;-62
2021/03/30 05:37:47;;;;;;;41.63;16.80;;;;;;;3.58;81.91;100886.22;1830493;77;21320;-63
2021/03/30 05:40:17;;;;;;;41.63;17.95;;;;;;;3.67;81.73;100886.30;1849080;77;21511;-62
2021/03/30 05:42:45;;;;;;;34.55;17.65;;;;;;;3.77;81.48;100888.11;1848436;77;21151;-64
2021/03/30 05:45:15;;;;;;;28.40;16.60;;;;;;;3.86;81.45;100886.03;1848100;77;21119;-65
2021/03/30 05:47:44;;;;;;;33.28;18.07;;;;;;;3.91;80.62;100887.80;1848609;77;21048;-62
2021/03/30 05:50:14;;;;;;;42.90;22.45;;;;;;;3.93;80.57;100887.39;1848922;77;21491;-61
2021/03/30 05:52:46;;;;;;;55.03;31.35;;;;;;;3.97;80.42;100877.56;1848922;77;21040;-63
2021/03/30 05:55:27;;;;;;;60.43;37.93;;;;;;;4.00;80.00;100884.41;1850919;77;21111;-62
2021/03/30 05:57:57;;;;;;;55.92;35.85;;;;;;;3.97;79.70;100886.99;1823365;77;21202;-62
2021/03/30 06:00:32;;;;;;;52.20;29.87;;;;;;;4.05;80.35;100895.62;1851285;77;21225;-61
2021/03/30 06:03:04;;;;;;;31.85;22.40;;;;;;;4.24;79.95;100886.31;1851615;77;21308;-63
2021/03/30 06:05:31;;;;;;;39.73;23.73;;;;;;;4.43;79.45;100892.88;1850939;77;21126;-63
2021/03/30 06:08:01;;;;;;;33.45;26.33;;;;;;;4.56;79.01;100893.83;1851646;77;21083;-62
2021/03/30 06:10:31;;;;;;;26.10;20.92;;;;;;;4.67;77.92;100899.03;1850886;77;21182;-62
2021/03/30 06:13:00;;;;;;;40.90;26.33;;;;;;;4.72;77.26;100899.50;1851561;77;21317;-62
2021/03/30 06:15:29;;;;;;;54.03;36.98;;;;;;;4.81;77.46;100907.26;1852340;77;21329;-64
2021/03/30 06:17:59;;;;;;;62.38;38.60;;;;;;;4.83;76.42;100897.81;1852237;77;21071;-62
2021/03/30 06:20:47;;;;;;;64.58;41.37;;;;;;;4.79;76.41;100901.27;1852206;77;21071;-62
2021/03/30 06:23:27;;;;;;;51.40;34.10;;;;;;;4.83;76.42;100900.82;1852329;77;21127;-61
2021/03/30 06:25:56;;;;;;;38.95;27.07;;;;;;;4.89;75.98;100907.30;1851550;77;21162;-64
2021/03/30 06:28:28;;;;;;;42.35;25.82;;;;;;;4.94;75.53;100905.62;1851513;77;21422;-63
2021/03/30 06:31:11;;;;;;;38.63;23.22;;;;;;;4.99;75.26;100909.08;1851416;77;21138;-63
2021/03/30 06:33:56;;;;;;;33.85;21.95;;;;;;;5.03;74.84;100907.34;1850998;77;21538;-65
2021/03/30 06:36:28;;;;;;;26.87;21.15;;;;;;;5.01;74.77;100910.34;1851424;77;21122;-64
2021/03/30 06:39:07;;;;;;;28.87;19.02;;;;;;;5.06;74.75;100912.53;1851799;77;21527;-61
2021/03/30 06:41:46;;;;;;;25.02;20.62;;;;;;;5.16;74.89;100898.83;1824560;77;21369;-61
2021/03/30 06:44:29;;;;;;;27.60;20.82;;;;;;;5.37;74.79;100908.34;1852305;77;21139;-61
2021/03/30 06:47:14;;;;;;;30.95;19.77;;;;;;;5.54;74.41;100908.81;1852232;77;21083;-62
2021/03/30 06:49:56;;;;;;;25.40;20.92;;;;;;;5.67;73.76;100903.66;1852386;77;21050;-61
2021/03/30 06:52:34;;;;;;;35.33;22.50;;;;;;;5.75;73.41;100907.13;1851034;77;21237;-63
2021/03/30 06:55:08;;;;;;;25.45;20.48;;;;;;;5.83;73.01;100909.27;1850549;77;21359;-61
2021/03/30 06:57:44;;;;;;;32.03;22.95;;;;;;;5.86;72.73;100907.55;1848836;77;21095;-61
2021/03/30 07:00:27;;;;;;;29.27;23.65;;;;;;;5.90;72.79;100908.88;1849115;77;21064;-61
2021/03/30 07:03:08;;;;;;;26.10;23.38;;;;;;;5.86;72.51;100907.55;1849258;77;21047;-61
2021/03/30 07:05:45;;;;;;;25.27;18.42;;;;;;;5.75;72.91;100908.41;1848901;77;21543;-61
2021/03/30 07:08:19;;;;;;;22.98;17.42;;;;;;;5.78;73.43;100904.12;1849086;77;21320;-61
2021/03/30 07:10:51;;;;;;;23.02;19.35;;;;;;;5.90;73.37;100908.88;1849027;77;21192;-62
2021/03/30 07:16:30;;;;;;;20.88;18.80;;;;;;;6.14;73.46;100920.08;1848848;77;21124;-62
2021/03/30 07:19:00;;;;;;;25.45;22.00;;;;;;;6.28;73.21;100916.61;1847372;77;21595;-60
2021/03/30 07:21:45;;;;;;;28.40;22.42;;;;;;;6.39;73.24;100919.63;1848760;77;22265;-63
2021/03/30 07:24:15;;;;;;;26.75;18.40;;;;;;;6.50;73.25;100918.31;1819300;77;21500;-61
2021/03/30 07:27:05;;;;;;;23.95;17.85;;;;;;;6.60;72.82;100913.96;1818590;78;21178;-60
2021/03/30 07:29:45;;;;;;;47.17;20.80;;;;;;;6.73;72.67;100917.83;1774122;80;21239;-61
2021/03/30 07:32:39;;;;;;;29.98;20.52;;;;;;;6.87;72.63;100910.88;1814762;79;21141;-62
2021/03/30 07:35:16;;;;;;;32.10;20.27;;;;;;;7.03;72.43;100915.98;1815469;79;21281;-61
2021/03/30 07:38:20;;;;;;;29.48;20.43;;;;;;;7.17;72.06;100917.67;1815698;79;21488;-61
2021/03/30 07:40:48;;;;;;;45.83;27.93;;;;;;;7.29;71.75;100921.05;1815665;79;21107;-62
2021/03/30 07:43:25;;;;;;;33.28;21.12;;;;;;;7.42;72.20;100917.09;1815408;79;21872;-61
2021/03/30 07:45:57;;;;;;;30.75;20.95;;;;;;;7.63;71.32;100923.01;1839773;77;21540;-61
2021/03/30 07:48:27;;;;;;;28.95;19.27;;;;;;;7.74;69.99;100922.52;1848888;77;21444;-61
2021/03/30 07:51:13;;;;;;;24.37;20.05;;;;;;;7.74;69.06;100925.11;1847610;77;21186;-62
2021/03/30 07:53:54;;;;;;;31.27;19.32;;;;;;;7.78;69.18;100928.11;1848873;77;21464;-61
2021/03/30 07:56:28;;;;;;;36.42;18.92;;;;;;;7.93;69.79;100930.59;1848821;77;21121;-62
2021/03/30 07:58:58;;;;;;;61.80;23.02;;;;;;;8.12;69.38;100930.86;1849092;77;21083;-61
2021/03/30 08:01:30;;;;;;;29.27;18.25;;;;;;;8.28;68.94;100933.74;1848961;77;21379;-62
2021/03/30 08:03:59;;;;;;;22.77;14.20;;;;;;;8.43;66.74;100926.72;1849054;77;21542;-61
2021/03/30 08:06:35;;;;;;;27.35;15.08;;;;;;;8.49;63.07;100929.27;1845894;77;21039;-61
2021/03/30 08:09:09;;;;;;;29.55;13.93;;;;;;;8.51;62.38;100929.68;1848471;77;21155;-62
2021/03/30 08:11:54;;;;;;;26.42;15.55;;;;;;;8.62;62.09;100936.04;1848989;77;21225;-61
2021/03/30 08:14:36;;;;;;;34.70;15.65;;;;;;;8.75;61.10;100927.28;1849152;77;21259;-62
2021/03/30 08:17:10;;;;;;;27.48;15.28;;;;;;;8.95;60.75;100929.65;1848987;77;21122;-63
2021/03/30 08:20:04;;;;;;;42.10;14.70;;;;;;;9.17;59.52;100927.22;1849111;77;21043;-61
2021/03/30 08:22:46;;;;;;;24.52;13.25;;;;;;;9.34;58.40;100923.10;1849156;77;26906;-63
2021/03/30 08:25:24;;;;;;;14.70;11.93;;;;;;;9.48;57.68;100919.87;1845851;77;21485;-63
2021/03/30 08:27:52;;;;;;;40.73;14.30;;;;;;;9.63;56.35;100923.98;1849032;77;21537;-64
2021/03/30 08:30:33;;;;;;;17.17;11.73;;;;;;;9.75;56.01;100922.95;1848927;77;21141;-63
2021/03/30 08:33:03;;;;;;;29.77;12.10;;;;;;;9.88;55.38;100920.14;1845227;77;21067;-63
2021/03/30 08:35:35;;;;;;;35.90;11.28;;;;;;;10.05;54.14;100922.91;1819099;77;21043;-63
2021/03/30 08:38:05;;;;;;;24.98;9.73;;;;;;;10.15;53.09;100917.98;1849058;77;21094;-63
2021/03/30 08:40:41;;;;;;;17.07;10.35;;;;;;;10.29;52.24;100921.23;1848794;77;21186;-63
2021/03/30 08:43:19;;;;;;;34.35;12.18;;;;;;;10.37;51.71;100914.61;1848811;77;21067;-63
2021/03/30 08:46:07;;;;;;;17.55;11.48;;;;;;;10.41;50.98;100912.34;1849068;77;21086;-61
2021/03/30 08:48:42;;;;;;;31.42;10.75;;;;;;;10.39;49.59;100912.84;1849001;77;21031;-62
2021/03/30 08:51:15;;;;;;;12.93;10.40;;;;;;;10.38;48.69;100909.39;1841963;77;21115;-62
2021/03/30 08:53:44;;;;;;;25.80;13.70;;;;;;;10.39;49.45;100916.75;1812548;78;22303;-64
2021/03/30 08:56:13;;;;;;;16.52;9.75;;;;;;;10.47;50.05;100915.70;1814627;78;21177;-63
2021/03/30 08:58:49;;;;;;;26.00;10.03;;;;;;;10.60;48.52;100913.73;1815260;79;21491;-62
2021/03/30 09:01:17;;;;;;;22.05;10.50;;;;;;;10.71;48.42;100914.41;1815569;79;21115;-62
2021/03/30 09:03:45;;;;;;;17.30;10.20;;;;;;;10.83;48.06;100914.59;1815689;78;21119;-64
2021/03/30 09:06:34;;;;;;;34.90;11.60;;;;;;;10.93;47.73;100903.99;1736728;79;21263;-62
2021/03/30 09:08:59;;;;;;;13.88;9.10;;;;;;;11.04;47.37;100906.36;1815536;78;21071;-64
2021/03/30 09:11:28;;;;;;;52.33;12.47;;;;;;;11.12;45.72;100905.77;1784622;77;21103;-61
2021/03/30 09:14:06;;;;;;;24.98;11.48;;;;;;;11.14;45.97;100905.30;1848908;77;21137;-62
2021/03/30 09:16:36;;;;;;;16.20;10.98;;;;;;;11.12;46.88;100904.47;1849302;77;21551;-63
2021/03/30 09:22:09;;;;;;;31.93;9.65;;;;;;;11.38;45.22;100903.92;1889934;75;22785;-64
2021/03/30 09:24:43;;;;;;;20.70;9.43;;;;;;;11.38;44.53;100909.98;1861064;77;21075;-61
2021/03/30 09:27:06;;;;;;;16.75;10.58;;;;;;;11.41;43.54;100909.03;1859894;77;21383;-61
2021/03/30 09:29:35;;;;;;;13.88;8.90;;;;;;;11.43;43.30;100902.05;1860767;77;21524;-62
2021/03/30 09:32:08;;;;;;;15.08;8.20;;;;;;;11.47;42.84;100906.75;1860918;77;21486;-62
2021/03/30 09:34:40;;;;;;;27.58;10.20;;;;;;;11.52;42.85;100908.81;1861039;77;21461;-61
2021/03/30 09:37:08;;;;;;;16.55;10.03;;;;;;;11.60;42.39;100901.22;1855634;76;20926;-61
2021/03/30 09:39:36;;;;;;;28.50;11.08;;;;;;;11.67;42.06;100900.64;1861039;77;21454;-62
2021/03/30 09:42:06;;;;;;;18.17;9.50;;;;;;;11.76;41.95;100901.78;1860946;77;21508;-63
2021/03/30 09:44:43;;;;;;;17.32;8.60;;;;;;;11.86;41.19;100900.65;1864927;76;20979;-62
2021/03/30 09:47:14;;;;;;;18.80;9.50;;;;;;;11.92;41.00;100897.91;1881692;76;21551;-61
2021/03/30 09:49:44;;;;;;;;;;;;;;;12.01;41.20;100896.36;1883945;76;21059;-62
2021/03/30 09:52:13;;;;;;;14.50;8.28;;;;;;;12.15;41.26;100897.78;1881630;76;21181;-61
2021/03/30 09:54:43;;;;;;;8.60;6.87;;;;;;;12.26;40.61;100890.53;1881514;76;21520;-62
2021/03/30 09:57:41;;;;;;;11.57;7.50;;;;;;;12.33;39.87;100897.31;1792723;79;21075;-62
2021/03/30 10:00:13;;;;;;;14.20;8.10;;;;;;;12.36;39.67;100892.88;1795557;79;21477;-62
2021/03/30 10:02:41;;;;;;;15.88;9.73;;;;;;;12.41;39.28;100899.26;1820934;78;21519;-63
2021/03/30 10:05:11;;;;;;;12.95;7.17;;;;;;;12.40;39.06;100891.02;1820741;78;21146;-63
2021/03/30 10:07:40;;;;;;;16.57;7.35;;;;;;;12.40;39.21;100896.23;1820735;78;21527;-61
2021/03/30 10:10:12;;;;;;;19.35;8.73;;;;;;;12.45;38.69;100889.60;1792092;78;21107;-62
2021/03/30 10:12:54;;;;;;;14.68;6.92;;;;;;;12.44;38.21;100882.22;1820783;78;21086;-61
2021/03/30 10:15:38;;;;;;;;;;;;;;;12.42;38.06;100882.70;1823220;78;21440;-61
2021/03/30 10:18:06;;;;;;;11.12;7.92;;;;;;;12.46;38.37;100886.95;1813643;79;21185;-61
2021/03/30 10:20:38;;;;;;;9.95;6.72;;;;;;;12.52;38.71;100882.03;1806687;79;21076;-61
2021/03/30 10:23:16;;;;;;;13.22;7.83;;;;;;;12.60;38.62;100878.74;1822772;78;21071;-61
2021/03/30 10:25:44;;;;;;;12.78;7.30;;;;;;;12.62;38.45;100879.11;1806679;79;21155;-62
2021/03/30 10:28:12;;;;;;;17.35;7.87;;;;;;;12.62;38.48;100879.56;1822766;78;21060;-62
2021/03/30 10:30:46;;;;;;;22.55;8.75;;;;;;;12.61;38.76;100875.23;1822785;78;21209;-61
2021/03/30 10:33:16;;;;;;;54.95;10.70;;;;;;;12.66;38.51;100870.30;1822299;78;21603;-61
2021/03/30 10:35:42;;;;;;;18.10;8.20;;;;;;;12.70;38.01;100861.50;1820999;78;21056;-61
2021/03/30 10:38:10;;;;;;;16.70;8.35;;;;;;;12.70;38.02;100869.78;1792440;78;21143;-61
2021/03/30 10:40:40;;;;;;;12.55;8.03;;;;;;;12.70;38.12;100861.94;1792249;78;21536;-62
2021/03/30 10:43:45;;;;;;;15.08;7.30;;;;;;;12.73;38.05;100861.86;1821579;78;21358;-61
2021/03/30 10:46:26;;;;;;;10.48;7.65;;;;;;;12.85;38.10;100856.73;1888485;76;22695;-61
2021/03/30 10:49:06;;;;;;;12.85;7.97;;;;;;;12.84;37.69;100855.88;1775247;80;21567;-62
2021/03/30 10:51:39;;;;;;;11.55;8.48;;;;;;;12.86;37.91;100855.38;1848599;77;21188;-61
2021/03/30 10:54:07;;;;;;;13.25;7.78;;;;;;;12.91;37.54;100849.59;1849853;77;26707;-61
2021/03/30 10:56:35;;;;;;;13.95;8.58;;;;;;;12.92;37.71;100851.75;1840280;77;20981;-63
2021/03/30 10:59:11;;;;;;;19.67;9.73;;;;;;;12.92;37.63;100849.13;1817083;78;21099;-62
2021/03/30 11:01:39;;;;;;;14.58;8.58;;;;;;;12.92;37.45;100848.69;1821237;77;21590;-63
2021/03/30 11:04:08;;;;;;;12.10;7.50;;;;;;;12.93;37.54;100849.09;1815398;79;21234;-64
2021/03/30 11:06:36;;;;;;;10.65;7.05;;;;;;;12.92;37.11;100842.16;1815473;78;21115;-62
2021/03/30 11:09:06;;;;;;;26.82;8.95;;;;;;;12.87;36.93;100839.27;1832220;77;21512;-63
2021/03/30 11:11:35;;;;;;;22.73;9.55;;;;;;;12.87;37.45;100835.35;1825687;77;21543;-61
2021/03/30 11:14:06;;;;;;;15.53;8.85;;;;;;;12.93;37.91;100833.42;1821256;78;21095;-62
2021/03/30 11:16:33;;;;;;;16.07;9.08;;;;;;;12.99;37.63;100834.53;1821794;78;21190;-62
2021/03/30 11:19:01;;;;;;;21.23;10.60;;;;;;;12.97;37.74;100823.30;1821885;78;21651;-62
2021/03/30 11:21:29;;;;;;;12.70;8.83;;;;;;;12.98;38.15;100821.09;1820664;78;21182;-62
2021/03/30 11:26:37;;;;;;;17.98;7.92;;;;;;;13.13;37.73;100815.00;1871999;76;22660;-62
2021/03/30 11:29:08;;;;;;;10.50;7.97;;;;;;;13.09;37.79;100810.30;1839902;77;21160;-63
2021/03/30 11:34:31;;;;;;;19.37;9.73;;;;;;;13.28;37.21;100802.34;1840651;78;21154;-61
2021/03/30 11:37:03;;;;;;;16.55;8.68;;;;;;;13.35;37.37;100796.03;1838993;78;21569;-61
2021/03/30 11:39:23;;;;;;;16.42;10.15;;;;;;;13.41;36.72;100801.48;1839264;77;21546;-63
2021/03/30 11:41:51;;;;;;;19.95;9.88;;;;;;;13.43;36.16;100800.54;1841306;78;21105;-61
2021/03/30 11:44:19;;;;;;;11.00;7.80;;;;;;;13.37;36.29;100794.67;1838934;78;21358;-61
2021/03/30 11:46:47;;;;;;;12.05;8.40;;;;;;;13.35;35.78;100795.17;1808349;78;21069;-62
2021/03/30 11:49:15;;;;;;;11.48;8.90;;;;;;;13.31;35.77;100791.80;1808410;79;21066;-63
2021/03/30 11:51:44;;;;;;;28.50;9.85;;;;;;;13.30;36.07;100780.08;1808420;79;21069;-62
2021/03/30 11:54:13;;;;;;;12.13;8.88;;;;;;;13.30;36.26;100780.94;1808403;78;21073;-61